Hovedside
METAR-TAF:

METAR-TAF

Lufthavner :

Östersund-Frösön, Sverige

Åre Östersund lufthavn

breddegrad: 63-11N, lengdegrad: 014-30E, høyde over havet: 376 m

Gjeldene værobservasjon

Denne rapporten ble laget for 1 time og 10 minutter siden, klokken 09:50 UTC
Vind 9 kt fra Vest-nordvest
Temperatur 2°C
Luftfuktighet 55%
Trykk 1006 hPa
Sikt 10 km eller mer
Brutte skyer i en høyde av 4300 ft

METAR: ESNZ 270950Z 30009KT 9999 BKN043 02/M06 Q1006

Tid: 13:00 (11:00 UTC)

Varsel

Denne rapporten ble laget for 2 timer og 30 minutter siden, klokken 08:30 UTC
Varsel gyldig fra 27. klokken 09 UTC til 27. klokken 18 UTC
Vind 8 kt fra Nordvest
Sikt 10 km eller mer
ingen skyer under 1500 m og ingen bygeskyer

TAF: ESNZ 270830Z 2709/2718 32008KT CAVOK

Værobservasjoner og værvarsel for over 4000 flyplasser (METAR- og TAF-rapporter).

Tilgjengelige stasjoner er representert av de røde og gule prikkene på kartet.

Hold musepekeren over prikken for å se navnet på stasjonen.

Klikk så for å se værobservasjoner og -varsler.

For å forandre kartet kan du klikke på den grønne knappen med svart kryss for å zoome inn, på den grønne knappen med strek for å zoome ut, eller på de grønne pilene for å se tilstøtende kart.


METAR-TAF: